createdAt,value
2023-02-01T00:00:20.979Z,19.90
2023-02-01T00:02:49.352Z,18.40
2023-02-01T00:05:17.404Z,15.10
2023-02-01T00:07:48.141Z,16.80
2023-02-01T00:10:16.506Z,20.00
2023-02-01T00:12:44.788Z,20.60
2023-02-01T00:15:13.117Z,25.70
2023-02-01T00:17:41.291Z,20.80
2023-02-01T00:20:09.917Z,17.80
2023-02-01T00:22:37.887Z,21.90
2023-02-01T00:25:06.148Z,20.00
2023-02-01T00:27:35.046Z,22.50
2023-02-01T00:30:03.374Z,19.50
2023-02-01T00:32:33.061Z,22.10
2023-02-01T00:35:02.151Z,41.10
2023-02-01T00:37:30.297Z,26.60
2023-02-01T00:39:58.289Z,22.90
2023-02-01T00:42:27.167Z,20.20
2023-02-01T00:44:55.256Z,14.90
2023-02-01T00:47:23.457Z,19.50
2023-02-01T00:49:51.523Z,18.00
2023-02-01T00:52:19.492Z,15.00
2023-02-01T00:54:47.487Z,20.30
2023-02-01T00:57:15.582Z,16.20
2023-02-01T00:59:43.864Z,17.20
2023-02-01T01:02:14.151Z,18.10
2023-02-01T01:04:42.190Z,15.90
2023-02-01T01:07:10.131Z,12.50
2023-02-01T01:09:38.140Z,12.60
2023-02-01T01:12:06.654Z,16.10
2023-02-01T01:14:34.680Z,14.70
2023-02-01T01:17:02.660Z,17.30
2023-02-01T01:19:30.660Z,18.10
2023-02-01T01:21:58.685Z,18.00
2023-02-01T01:24:26.828Z,17.90
2023-02-01T01:26:54.828Z,17.50
2023-02-01T01:29:22.823Z,13.90
2023-02-01T01:31:50.771Z,17.00
2023-02-01T01:34:19.094Z,18.70
2023-02-01T01:36:47.111Z,18.60
2023-02-01T01:39:15.353Z,18.30
2023-02-01T01:41:43.409Z,17.80
2023-02-01T01:44:43.933Z,20.30
2023-02-01T01:47:12.248Z,18.30
2023-02-01T01:49:40.308Z,22.20
2023-02-01T04:08:05.656Z,36.20
2023-02-01T04:10:32.722Z,37.40
2023-02-01T04:12:59.991Z,39.80
2023-02-01T04:15:27.053Z,30.90
2023-02-01T04:17:53.837Z,34.80
2023-02-01T04:20:20.949Z,38.00
2023-02-01T04:22:47.865Z,36.90
2023-02-01T04:25:18.524Z,38.70
2023-02-01T04:30:14.315Z,33.10
2023-02-01T04:32:41.166Z,26.00
2023-02-01T04:35:08.499Z,30.20
2023-02-01T04:37:36.346Z,21.70
2023-02-01T04:40:04.243Z,29.80
2023-02-01T04:42:31.809Z,29.70
2023-02-01T04:44:58.717Z,26.70
2023-02-01T04:47:27.098Z,22.50
2023-02-01T04:49:53.799Z,22.40
2023-02-01T04:52:20.632Z,29.80
2023-02-01T04:54:47.367Z,27.40
2023-02-01T04:57:15.334Z,24.60
2023-02-01T04:59:42.101Z,26.40
2023-02-01T05:02:08.898Z,24.40
2023-02-01T05:04:35.659Z,22.60
2023-02-01T05:07:03.039Z,31.10
2023-02-01T05:09:30.131Z,23.30
2023-02-01T05:12:15.608Z,26.70
2023-02-01T05:14:42.355Z,19.40
2023-02-01T05:17:09.204Z,26.50
2023-02-01T05:19:36.436Z,27.50
2023-02-01T05:22:03.192Z,37.20
2023-02-01T05:24:30.112Z,36.50
2023-02-01T05:26:56.850Z,30.00
2023-02-01T05:29:23.895Z,73.30
2023-02-01T05:31:51.443Z,54.20
2023-02-01T05:34:18.783Z,50.00
2023-02-01T05:36:45.591Z,38.60
2023-02-01T05:39:12.703Z,33.60
2023-02-01T05:41:39.436Z,37.70
2023-02-01T05:44:07.728Z,28.00
2023-02-01T05:46:35.746Z,40.00
2023-02-01T05:49:02.943Z,29.50
2023-02-01T05:51:30.167Z,36.80
2023-02-01T05:53:56.828Z,33.60
2023-02-01T05:56:23.572Z,35.50
2023-02-01T05:58:50.712Z,25.80
2023-02-01T06:01:17.388Z,30.20
2023-02-01T06:03:44.715Z,28.70
2023-02-01T06:06:11.505Z,33.90
2023-02-01T06:08:40.572Z,33.70
2023-02-01T06:11:07.269Z,28.40
2023-02-01T06:13:35.026Z,29.30
2023-02-01T06:16:03.600Z,28.00
2023-02-01T06:18:31.911Z,35.30
2023-02-01T06:21:01.127Z,29.90
2023-02-01T06:23:29.563Z,27.70
2023-02-01T06:26:01.215Z,34.50
2023-02-01T06:30:56.299Z,28.70
2023-02-01T06:33:23.109Z,28.30
2023-02-01T06:35:59.031Z,28.30
2023-02-01T06:38:26.694Z,28.20
2023-02-01T06:40:54.411Z,35.20
2023-02-01T06:43:23.068Z,27.70
2023-02-01T06:45:53.672Z,27.10
2023-02-01T06:48:20.523Z,34.40
2023-02-01T06:50:47.226Z,38.80
2023-02-01T06:53:14.493Z,39.00
2023-02-01T06:55:41.289Z,37.00
2023-02-01T06:58:08.008Z,24.30
2023-02-01T07:00:37.715Z,35.90
2023-02-01T07:03:05.326Z,37.40
2023-02-01T07:05:32.203Z,41.00
2023-02-01T07:07:58.891Z,31.30
2023-02-01T07:10:25.797Z,33.60
2023-02-01T07:12:52.512Z,40.30
2023-02-01T07:15:23.233Z,40.20
2023-02-01T07:17:51.236Z,25.30
2023-02-01T07:20:18.253Z,33.70
2023-02-01T07:22:45.258Z,29.00
2023-02-01T07:25:12.004Z,30.60
2023-02-01T07:27:39.306Z,33.10
2023-02-01T07:30:06.597Z,32.70
2023-02-01T07:32:34.113Z,30.80
2023-02-01T07:35:00.835Z,30.80
2023-02-01T07:37:29.047Z,32.70
2023-02-01T07:39:55.819Z,37.30
2023-02-01T07:42:22.516Z,26.40
2023-02-01T07:44:49.230Z,37.60
2023-02-01T07:47:16.629Z,24.80
2023-02-01T07:49:43.417Z,34.90
2023-02-01T07:52:11.664Z,33.40
2023-02-01T07:54:38.438Z,34.20
2023-02-01T07:57:05.309Z,31.00
2023-02-01T07:59:32.067Z,31.50
2023-02-01T08:01:58.786Z,33.40
2023-02-01T08:04:25.743Z,29.70
2023-02-01T08:06:52.512Z,32.30
2023-02-01T08:09:19.194Z,26.40
2023-02-01T08:11:46.333Z,31.80
2023-02-01T08:14:14.737Z,27.70
2023-02-01T08:16:41.779Z,35.80
2023-02-01T08:19:08.929Z,24.00
2023-02-01T08:21:37.111Z,23.90
2023-02-01T08:24:07.869Z,25.20
2023-02-01T08:26:37.712Z,28.30
2023-02-01T08:29:05.157Z,27.00
2023-02-01T08:31:32.243Z,30.40
2023-02-01T08:34:00.671Z,24.30
2023-02-01T08:36:28.746Z,27.70
2023-02-01T08:38:55.658Z,27.90
2023-02-01T08:41:25.836Z,29.20
2023-02-01T08:43:54.485Z,28.90
2023-02-01T08:46:23.133Z,24.70
2023-02-01T08:48:50.447Z,31.40
2023-02-01T08:51:19.032Z,32.10
2023-02-01T08:53:47.208Z,29.60
2023-02-01T08:56:15.729Z,29.30
2023-02-01T08:58:43.083Z,25.80
2023-02-01T09:01:12.948Z,23.60
2023-02-01T09:03:39.843Z,24.00
2023-02-01T09:06:11.487Z,30.70
2023-02-01T09:08:46.548Z,32.20
2023-02-01T09:11:15.256Z,28.70
2023-02-01T09:13:43.531Z,25.30
2023-02-01T09:16:10.811Z,22.10
2023-02-01T09:18:45.999Z,25.30
2023-02-01T09:21:24.110Z,26.10
2023-02-01T09:23:52.056Z,23.80
2023-02-01T09:26:19.816Z,21.00
2023-02-01T09:28:50.474Z,23.10
2023-02-01T09:31:17.314Z,21.80
2023-02-01T09:33:44.424Z,25.90
2023-02-01T09:36:12.095Z,19.20
2023-02-01T09:38:44.574Z,25.10
2023-02-01T09:41:44.367Z,19.60
2023-02-01T09:44:42.455Z,23.20
2023-02-01T09:47:14.730Z,21.40
2023-02-01T09:50:05.172Z,22.50
2023-02-01T12:26:10.096Z,18.70
2023-02-01T12:28:42.151Z,20.20
2023-02-01T12:31:25.711Z,24.00
2023-02-01T12:34:09.038Z,18.80
2023-02-01T12:36:58.761Z,20.40
2023-02-01T12:39:32.828Z,19.40
2023-02-01T12:42:14.870Z,21.50
2023-02-01T12:44:48.724Z,21.30
2023-02-01T12:47:21.817Z,24.90
2023-02-01T12:50:12.014Z,20.10
2023-02-01T12:52:46.975Z,25.90
2023-02-01T12:55:25.172Z,22.90
2023-02-01T12:58:18.966Z,23.60
2023-02-01T13:00:51.819Z,24.60
2023-02-01T13:03:39.011Z,25.60
2023-02-01T13:06:19.889Z,15.80
2023-02-01T13:09:16.342Z,19.40
2023-02-01T13:11:48.528Z,19.20
2023-02-01T13:14:32.907Z,15.70
2023-02-01T13:17:14.109Z,16.00
2023-02-01T13:19:48.095Z,23.60
2023-02-01T13:22:37.085Z,26.10
2023-02-01T13:25:18.831Z,24.60
2023-02-01T13:30:21.347Z,19.70
2023-02-01T13:33:53.108Z,21.80
2023-02-01T13:36:21.317Z,17.90
2023-02-01T13:39:01.675Z,18.50
2023-02-01T13:41:34.111Z,20.60
2023-02-01T13:44:07.406Z,18.30
2023-02-01T13:46:46.630Z,21.80
2023-02-01T13:49:21.792Z,20.70
2023-02-01T13:51:55.977Z,19.70
2023-02-01T13:54:34.181Z,18.00
2023-02-01T13:57:04.233Z,23.70
2023-02-01T14:00:08.273Z,21.00
2023-02-01T14:02:43.057Z,22.00
2023-02-01T14:05:13.231Z,21.30
2023-02-01T14:08:14.292Z,18.20
2023-02-01T14:10:59.310Z,18.50
2023-02-01T14:13:41.091Z,16.40
2023-02-01T14:21:31.967Z,22.00
2023-02-01T14:24:24.297Z,28.20
2023-02-01T14:26:54.488Z,27.60
2023-02-01T14:29:35.850Z,25.60
2023-02-01T14:32:22.931Z,30.50
2023-02-01T14:35:21.743Z,27.80
2023-02-01T14:41:22.390Z,35.70
2023-02-01T14:44:11.436Z,38.90
2023-02-01T14:47:17.557Z,38.00
2023-02-01T14:50:11.957Z,40.90
2023-02-01T14:52:44.738Z,25.20
2023-02-01T14:55:17.843Z,27.10
2023-02-01T14:57:47.596Z,30.70
2023-02-01T15:00:20.506Z,37.40
2023-02-01T15:02:50.736Z,37.10
2023-02-01T15:05:28.104Z,36.50
2023-02-01T15:07:58.040Z,24.00
2023-02-01T15:10:27.111Z,34.50
2023-02-01T15:12:55.196Z,31.30
2023-02-01T15:15:25.254Z,22.30
2023-02-01T15:17:57.738Z,26.70
2023-02-01T15:20:29.058Z,26.40
2023-02-01T15:23:01.513Z,23.80
2023-02-01T15:25:32.478Z,23.50
2023-02-01T15:28:00.672Z,20.20
2023-02-01T15:30:31.786Z,25.70
2023-02-01T15:33:14.988Z,18.50
2023-02-01T15:36:16.309Z,16.80
2023-02-01T15:38:44.991Z,18.80
2023-02-01T15:41:16.851Z,20.70
2023-02-01T15:43:57.132Z,21.60
2023-02-01T15:46:37.714Z,30.00
2023-02-01T15:49:27.169Z,28.50
2023-02-01T15:51:55.760Z,28.40
2023-02-01T15:54:34.337Z,33.90
2023-02-01T16:15:54.762Z,27.50
2023-02-01T16:18:23.267Z,23.50
2023-02-01T16:20:51.436Z,24.30
2023-02-01T16:23:21.530Z,22.20
2023-02-01T16:25:52.215Z,23.70
2023-02-01T16:28:20.713Z,22.50
2023-02-01T16:30:49.863Z,21.90
2023-02-01T16:33:22.972Z,23.70
2023-02-01T16:35:51.581Z,22.60
2023-02-01T16:38:23.386Z,20.40
2023-02-01T16:40:57.965Z,20.00
2023-02-01T16:43:27.465Z,22.40
2023-02-01T16:45:56.812Z,20.20
2023-02-01T16:48:29.476Z,23.90
2023-02-01T16:51:04.388Z,18.70
2023-02-01T16:53:36.595Z,24.50
2023-02-01T16:56:17.300Z,22.00
2023-02-01T16:58:45.806Z,24.40
2023-02-01T17:01:17.281Z,24.80
2023-02-01T17:03:47.258Z,24.00
2023-02-01T17:06:20.679Z,23.40
2023-02-01T17:08:53.806Z,24.70
2023-02-01T17:11:22.824Z,24.60
2023-02-01T17:13:51.210Z,30.70
2023-02-01T17:16:30.004Z,28.40
2023-02-01T17:19:01.408Z,24.40
2023-02-01T17:21:31.373Z,31.00
2023-02-01T17:24:01.399Z,30.80
2023-02-01T17:26:29.588Z,37.20
2023-02-01T17:28:59.294Z,32.50
2023-02-01T17:31:27.530Z,32.80
2023-02-01T17:33:58.301Z,37.20
2023-02-01T17:36:27.568Z,37.00
2023-02-01T17:39:05.407Z,33.20
2023-02-01T17:41:36.206Z,38.80
2023-02-01T17:44:04.718Z,37.80
2023-02-01T17:46:33.255Z,38.30
2023-02-01T19:58:44.802Z,33.70
2023-02-01T20:01:12.158Z,38.00
2023-02-01T20:03:38.944Z,33.80
2023-02-01T20:06:06.961Z,46.00
2023-02-01T20:08:34.081Z,41.80
2023-02-01T20:11:05.420Z,55.10
2023-02-01T20:13:34.740Z,47.00
2023-02-01T20:16:01.823Z,36.30
2023-02-01T20:18:28.677Z,37.40
2023-02-01T20:20:56.535Z,44.30
2023-02-01T20:23:24.281Z,25.00
2023-02-01T20:25:52.141Z,25.00
2023-02-01T20:28:18.930Z,31.10
2023-02-01T20:30:46.169Z,31.60
2023-02-01T20:33:12.962Z,30.80
2023-02-01T20:35:44.565Z,32.60
2023-02-01T20:38:11.842Z,24.00
2023-02-01T20:40:38.662Z,27.00
2023-02-01T20:43:05.781Z,30.80
2023-02-01T20:45:32.524Z,30.40
2023-02-01T20:47:59.767Z,34.30
2023-02-01T20:50:26.459Z,24.60
2023-02-01T20:52:53.114Z,25.60
2023-02-01T20:55:19.801Z,23.80
2023-02-01T20:57:46.555Z,25.40
2023-02-01T21:00:14.963Z,19.60
2023-02-01T21:02:41.711Z,17.00
2023-02-01T21:05:08.917Z,14.70
2023-02-01T21:07:39.374Z,20.00
2023-02-01T21:10:07.155Z,36.20
2023-02-01T21:12:39.276Z,36.90
2023-02-01T21:15:06.560Z,35.60
2023-02-01T21:17:33.331Z,33.70
2023-02-01T21:20:00.043Z,33.70
2023-02-01T21:22:26.930Z,32.70
2023-02-01T21:24:53.759Z,27.80
2023-02-01T21:27:21.413Z,39.70
2023-02-01T21:29:48.104Z,26.20
2023-02-01T21:32:14.851Z,29.00
2023-02-01T21:34:41.531Z,30.00
2023-02-01T21:37:08.479Z,26.80
2023-02-01T21:39:35.972Z,27.60
2023-02-01T21:42:16.879Z,24.10
2023-02-01T21:44:47.868Z,29.30
2023-02-01T21:47:18.639Z,23.60
2023-02-01T21:49:45.969Z,28.50
2023-02-01T21:52:13.356Z,23.40
2023-02-01T21:54:40.103Z,31.10
2023-02-01T21:57:12.083Z,32.70
2023-02-01T21:59:40.151Z,46.80
2023-02-01T22:02:11.569Z,30.00
2023-02-01T22:04:39.210Z,37.50
2023-02-01T22:07:06.895Z,31.10
2023-02-01T22:09:33.720Z,26.30
2023-02-01T22:12:00.502Z,43.60
2023-02-01T22:14:30.859Z,42.40
2023-02-01T22:16:57.726Z,37.50
2023-02-01T22:19:24.579Z,50.40
2023-02-01T22:21:51.394Z,47.60
2023-02-01T22:24:20.643Z,32.30
2023-02-01T22:26:48.264Z,39.30
2023-02-01T22:29:16.656Z,41.60
2023-02-01T22:31:43.576Z,29.40
2023-02-01T22:34:10.867Z,20.00
2023-02-01T22:36:37.725Z,16.80
2023-02-01T22:39:04.604Z,23.60
2023-02-01T22:41:31.713Z,18.90
2023-02-01T22:44:00.288Z,18.60
2023-02-01T22:46:27.483Z,20.30
2023-02-01T22:48:54.780Z,21.30
2023-02-01T22:51:23.671Z,18.00
2023-02-01T22:53:56.500Z,17.20
2023-02-01T22:56:27.006Z,14.60
2023-02-01T22:58:55.764Z,16.70
2023-02-01T23:01:22.638Z,13.70
2023-02-01T23:03:51.055Z,17.20
2023-02-01T23:06:18.121Z,19.10
2023-02-01T23:08:45.545Z,19.10
2023-02-01T23:11:12.583Z,19.40
2023-02-01T23:13:39.788Z,20.60
2023-02-01T23:16:10.920Z,16.20
2023-02-01T23:18:37.842Z,13.50
2023-02-01T23:21:06.534Z,20.90
2023-02-01T23:23:33.300Z,23.30
2023-02-01T23:26:00.377Z,15.50
2023-02-01T23:28:27.622Z,18.80
2023-02-01T23:30:54.574Z,16.10
2023-02-01T23:33:22.943Z,13.70
2023-02-01T23:36:00.293Z,18.20
2023-02-01T23:38:28.216Z,19.80
2023-02-01T23:40:59.530Z,14.30
2023-02-01T23:43:56.032Z,25.10
2023-02-01T23:46:24.053Z,13.40
2023-02-01T23:48:51.611Z,25.50
2023-02-01T23:51:18.656Z,24.20
